Celina, Ohio
Current Conditions -  °F | °C
As of 9:33 AM on Friday 28 Nov 2014 (Local Time) from KAXV Reporting Station
Scattered Clouds Scattered Clouds  
Wind Chill: 21°   Ceiling: Unl
Heat Index: 27°   Visibility: 10mi
Dew Point: 19°   Wind: 5mph
Humidity: 74%   Direction: 160°SSE
Pressure: 30.34"   Gusts: NA
Location:  40.55°N, 84.57°W
Report Text: KAXV 281433Z AUTO 16004KT 10SM SCT080 SCT120 M03/M07 A3034 RMK AO2
Loading
Personal Weather Stations






























Interactive Weather Map New forecast layout! Learn more

10-Day Weather Forecast

Advertisements
Track Severe Weather on mobile